Time;durP1;ratioP1;P1;durP2;ratioP2;P2;SDS_P1;SDS_P2;PMS_P1;PMS_P2;Temp;Humidity;BMP_temperature;BMP_pressure;BME280_temperature;BME280_humidity;BME280_pressure;Samples;Min_cycle;Max_cycle;Signal;HPM_P1;HPM_P2
2022/04/02 00:01:49;;;;;;;10.18;6.45;;;;;;;;;;5094739;28;20024;-61
2022/04/02 00:04:15;;;;;;;9.30;5.93;;;;;;;;;;5094673;28;20024;-61
2022/04/02 00:06:41;;;;;;;8.45;5.60;;;;;;;;;;5108699;28;20035;-61
2022/04/02 00:09:08;;;;;;;14.07;5.97;;;;;;;;;;5095392;28;20024;-59
2022/04/02 00:11:34;;;;;;;9.75;6.15;;;;;;;;;;5100297;28;20019;-59
2022/04/02 00:14:00;;;;;;;9.95;5.55;;;;;;;;;;5115089;28;20597;-59
2022/04/02 00:16:26;;;;;;;8.60;5.07;;;;;;;;;;5114719;28;20028;-59
2022/04/02 00:18:52;;;;;;;14.23;5.93;;;;;;;;;;5114192;28;20047;-60
2022/04/02 00:21:18;;;;;;;13.60;6.03;;;;;;;;;;5094186;28;20034;-60
2022/04/02 00:23:44;;;;;;;9.88;5.70;;;;;;;;;;5094516;28;20049;-60
2022/04/02 00:26:12;;;;;;;8.90;5.22;;;;;;;;;;5094588;28;20085;-60
2022/04/02 00:28:39;;;;;;;9.65;6.15;;;;;;;;;;5094264;28;20534;-60
2022/04/02 00:31:07;;;;;;;10.10;6.70;;;;;;;;;;5094329;28;20016;-60
2022/04/02 00:33:34;;;;;;;15.48;5.68;;;;;;;;;;5094449;28;20013;-60
2022/04/02 00:36:00;;;;;;;10.35;6.00;;;;;;;;;;5094125;28;20514;-60
2022/04/02 00:38:26;;;;;;;9.50;5.72;;;;;;;;;;5094013;28;20056;-60
2022/04/02 00:40:53;;;;;;;10.07;6.10;;;;;;;;;;5094121;28;20024;-61
2022/04/02 00:43:22;;;;;;;9.65;5.93;;;;;;;;;;5094174;28;20023;-62
2022/04/02 00:45:49;;;;;;;10.10;6.47;;;;;;;;;;5093989;28;20099;-62
2022/04/02 00:48:15;;;;;;;9.73;6.47;;;;;;;;;;5094147;28;20016;-62
2022/04/02 00:50:41;;;;;;;9.02;5.97;;;;;;;;;;5094056;28;20024;-62
2022/04/02 00:53:07;;;;;;;9.88;5.85;;;;;;;;;;5092886;28;20021;-61
2022/04/02 00:55:33;;;;;;;9.88;5.75;;;;;;;;;;5093877;28;20034;-61
2022/04/02 00:58:00;;;;;;;8.85;5.85;;;;;;;;;;5093936;28;20103;-61
2022/04/02 01:00:27;;;;;;;10.55;5.93;;;;;;;;;;5093646;28;20020;-61
2022/04/02 01:02:53;;;;;;;11.98;5.78;;;;;;;;;;5093535;28;20024;-61
2022/04/02 01:05:20;;;;;;;9.40;5.53;;;;;;;;;;5093950;28;20121;-61
2022/04/02 01:07:47;;;;;;;9.20;5.72;;;;;;;;;;5096831;28;20080;-61
2022/04/02 01:10:13;;;;;;;8.18;5.65;;;;;;;;;;5113855;28;20022;-61
2022/04/02 01:12:39;;;;;;;9.35;5.65;;;;;;;;;;5114001;28;20024;-61
2022/04/02 01:15:05;;;;;;;7.85;5.30;;;;;;;;;;5113920;28;20040;-61
2022/04/02 01:17:32;;;;;;;8.90;5.72;;;;;;;;;;5113936;28;20382;-61
2022/04/02 01:19:58;;;;;;;9.60;5.72;;;;;;;;;;5113905;28;20019;-62
2022/04/02 01:22:24;;;;;;;8.00;4.72;;;;;;;;;;5113853;28;20020;-61
2022/04/02 01:24:51;;;;;;;8.45;5.47;;;;;;;;;;5113971;28;20028;-61
2022/04/02 01:27:17;;;;;;;9.93;5.38;;;;;;;;;;5113756;28;20530;-61
2022/04/02 01:29:43;;;;;;;7.63;5.00;;;;;;;;;;5113553;28;20023;-61
2022/04/02 01:32:09;;;;;;;10.95;5.53;;;;;;;;;;5113658;28;20069;-61
2022/04/02 01:34:35;;;;;;;8.32;5.38;;;;;;;;;;5113635;28;20482;-61
2022/04/02 01:37:01;;;;;;;8.63;5.22;;;;;;;;;;5113361;28;20537;-62
2022/04/02 01:39:27;;;;;;;8.48;5.05;;;;;;;;;;5113578;28;20016;-61
2022/04/02 01:41:54;;;;;;;7.60;4.90;;;;;;;;;;5113485;28;20023;-60
2022/04/02 01:44:20;;;;;;;8.30;5.13;;;;;;;;;;5113264;28;20031;-59
2022/04/02 01:46:46;;;;;;;8.07;4.80;;;;;;;;;;5113215;28;20098;-60
2022/04/02 01:49:12;;;;;;;9.55;5.38;;;;;;;;;;5113182;28;20011;-60
2022/04/02 01:51:38;;;;;;;9.38;5.65;;;;;;;;;;5113219;28;20587;-59
2022/04/02 01:54:04;;;;;;;8.30;5.00;;;;;;;;;;5113280;28;20060;-60
2022/04/02 01:56:30;;;;;;;11.43;5.75;;;;;;;;;;5113190;28;20079;-60
2022/04/02 01:58:56;;;;;;;9.02;5.18;;;;;;;;;;5113167;28;20051;-59
2022/04/02 02:01:22;;;;;;;8.85;4.88;;;;;;;;;;5112907;28;20020;-62
2022/04/02 02:03:48;;;;;;;8.00;4.75;;;;;;;;;;5112742;28;20502;-62
2022/04/02 02:06:14;;;;;;;8.07;5.38;;;;;;;;;;5112931;28;20020;-62
2022/04/02 02:08:40;;;;;;;7.70;4.75;;;;;;;;;;5112934;28;20028;-61
2022/04/02 02:11:06;;;;;;;8.38;4.82;;;;;;;;;;5112858;28;20028;-62
2022/04/02 02:13:32;;;;;;;7.30;4.97;;;;;;;;;;5112718;28;20023;-62
2022/04/02 02:15:58;;;;;;;7.65;4.63;;;;;;;;;;5111850;28;20042;-62
2022/04/02 02:18:24;;;;;;;9.35;5.13;;;;;;;;;;5098319;28;20487;-61
2022/04/02 02:20:50;;;;;;;9.77;5.10;;;;;;;;;;5108877;28;20031;-62
2022/04/02 02:23:16;;;;;;;8.02;4.65;;;;;;;;;;5114008;28;20019;-62
2022/04/02 02:25:42;;;;;;;10.20;5.30;;;;;;;;;;5114011;28;20023;-62
2022/04/02 02:28:08;;;;;;;7.85;4.78;;;;;;;;;;5113898;28;20040;-62
2022/04/02 02:30:34;;;;;;;6.78;4.25;;;;;;;;;;5112608;28;20053;-61
2022/04/02 02:35:51;;;;;;;8.30;5.57;;;;;;;;;;5112497;28;20059;-60
2022/04/02 02:38:20;;;;;;;7.88;4.95;;;;;;;;;;5112156;28;20044;-60
2022/04/02 02:40:46;;;;;;;7.38;4.88;;;;;;;;;;5112233;28;20036;-60
2022/04/02 02:43:13;;;;;;;8.30;5.30;;;;;;;;;;5112138;28;20028;-63
2022/04/02 02:45:39;;;;;;;8.52;5.90;;;;;;;;;;5112073;28;20020;-59
2022/04/02 02:48:06;;;;;;;6.97;4.65;;;;;;;;;;5112179;28;20024;-62
2022/04/02 02:50:32;;;;;;;8.05;5.18;;;;;;;;;;5112111;28;20402;-60
2022/04/02 02:52:58;;;;;;;7.47;4.75;;;;;;;;;;5112318;28;20027;-60
2022/04/02 02:55:24;;;;;;;8.40;5.47;;;;;;;;;;5112286;28;20012;-59
2022/04/02 02:57:50;;;;;;;7.60;5.13;;;;;;;;;;5111997;28;20036;-60
2022/04/02 03:00:17;;;;;;;9.10;5.47;;;;;;;;;;5111943;28;20514;-60
2022/04/02 03:02:43;;;;;;;8.25;5.55;;;;;;;;;;5093868;28;20038;-59
2022/04/02 03:05:13;;;;;;;8.55;5.07;;;;;;;;;;5112024;28;20028;-59
2022/04/02 03:07:51;;;;;;;8.45;5.50;;;;;;;;;;5112402;28;20031;-62
2022/04/02 03:10:22;;;;;;;8.23;5.13;;;;;;;;;;5111922;28;20022;-60
2022/04/02 03:12:50;;;;;;;8.35;5.47;;;;;;;;;;5112054;28;20394;-60
2022/04/02 03:15:18;;;;;;;9.85;5.72;;;;;;;;;;5112511;28;20024;-60
2022/04/02 03:17:44;;;;;;;8.48;5.50;;;;;;;;;;5116206;28;20129;-59
2022/04/02 03:20:14;;;;;;;10.27;6.15;;;;;;;;;;5116161;28;20020;-60
2022/04/02 03:22:41;;;;;;;9.00;5.30;;;;;;;;;;5116244;28;20084;-60
2022/04/02 03:25:11;;;;;;;8.93;5.55;;;;;;;;;;5116230;28;20032;-60
2022/04/02 03:27:38;;;;;;;8.68;5.20;;;;;;;;;;5115968;28;20008;-62
2022/04/02 03:30:06;;;;;;;10.10;5.85;;;;;;;;;;5115972;28;20019;-62
2022/04/02 03:32:32;;;;;;;7.53;4.90;;;;;;;;;;5115941;28;20026;-62
2022/04/02 03:34:59;;;;;;;7.57;4.97;;;;;;;;;;5115869;28;20023;-60
2022/04/02 03:37:25;;;;;;;8.35;5.68;;;;;;;;;;5115734;28;20051;-60
2022/04/02 03:39:52;;;;;;;9.23;5.22;;;;;;;;;;5115725;28;20038;-59
2022/04/02 03:42:18;;;;;;;7.63;5.15;;;;;;;;;;5115690;28;20024;-60
2022/04/02 03:44:45;;;;;;;6.85;4.70;;;;;;;;;;5115850;28;20538;-59
2022/04/02 03:47:11;;;;;;;8.23;5.65;;;;;;;;;;5115529;28;20035;-61
2022/04/02 03:49:37;;;;;;;7.75;4.97;;;;;;;;;;5115492;28;20020;-61
2022/04/02 03:52:04;;;;;;;8.20;5.63;;;;;;;;;;5115503;28;20030;-62
2022/04/02 03:54:30;;;;;;;8.60;5.32;;;;;;;;;;5115662;28;20512;-62
2022/04/02 03:56:56;;;;;;;8.40;5.20;;;;;;;;;;5115441;28;20024;-62
2022/04/02 03:59:22;;;;;;;10.05;5.82;;;;;;;;;;5115580;28;20527;-61
2022/04/02 04:01:48;;;;;;;8.93;5.45;;;;;;;;;;5115522;28;20596;-61
2022/04/02 04:04:14;;;;;;;8.52;5.50;;;;;;;;;;5115244;28;20024;-60
2022/04/02 04:06:40;;;;;;;9.25;5.38;;;;;;;;;;5115252;28;20359;-61
2022/04/02 04:09:06;;;;;;;9.25;6.15;;;;;;;;;;5115080;28;20015;-61
2022/04/02 04:11:33;;;;;;;7.93;5.45;;;;;;;;;;5115086;28;20018;-61
2022/04/02 04:13:59;;;;;;;8.65;5.35;;;;;;;;;;5114987;28;20019;-61
2022/04/02 04:16:25;;;;;;;7.72;5.57;;;;;;;;;;5114936;28;20080;-61
2022/04/02 04:18:52;;;;;;;9.15;4.97;;;;;;;;;;5115134;28;20107;-60
2022/04/02 04:21:18;;;;;;;9.50;5.35;;;;;;;;;;5113438;28;20031;-61
2022/04/02 04:23:44;;;;;;;10.05;5.95;;;;;;;;;;5114982;28;20028;-60
2022/04/02 04:26:11;;;;;;;10.32;5.47;;;;;;;;;;5115174;28;20023;-61
2022/04/02 04:28:38;;;;;;;8.13;4.93;;;;;;;;;;5114745;28;20035;-61
2022/04/02 04:31:04;;;;;;;8.45;5.32;;;;;;;;;;5114542;28;20031;-61
2022/04/02 04:33:31;;;;;;;8.73;5.32;;;;;;;;;;5114839;28;20015;-61
2022/04/02 04:35:57;;;;;;;9.40;5.95;;;;;;;;;;5114579;28;20031;-61
2022/04/02 04:38:23;;;;;;;8.55;5.40;;;;;;;;;;5114507;28;20048;-61
2022/04/02 04:40:49;;;;;;;10.18;5.32;;;;;;;;;;5114627;28;20457;-61
2022/04/02 04:43:15;;;;;;;7.65;4.78;;;;;;;;;;5114991;28;20027;-61
2022/04/02 04:45:41;;;;;;;8.90;5.63;;;;;;;;;;5114583;28;20020;-61
2022/04/02 04:48:07;;;;;;;8.30;5.70;;;;;;;;;;5114526;28;20027;-61
2022/04/02 04:50:35;;;;;;;7.75;5.15;;;;;;;;;;5114511;28;20019;-61
2022/04/02 04:53:01;;;;;;;10.07;5.22;;;;;;;;;;5114504;28;20500;-61
2022/04/02 04:55:27;;;;;;;8.00;5.50;;;;;;;;;;5114357;28;20020;-61
2022/04/02 04:57:53;;;;;;;6.38;4.47;;;;;;;;;;5114244;28;20038;-61
2022/04/02 05:00:20;;;;;;;9.80;5.40;;;;;;;;;;5114083;28;20490;-62
2022/04/02 05:02:47;;;;;;;11.02;5.93;;;;;;;;;;5114105;28;20095;-61
2022/04/02 05:05:13;;;;;;;7.72;5.55;;;;;;;;;;5114158;28;20015;-61
2022/04/02 05:07:42;;;;;;;8.80;5.70;;;;;;;;;;5114164;28;20028;-61
2022/04/02 05:10:09;;;;;;;8.18;5.10;;;;;;;;;;5114076;28;20020;-60
2022/04/02 05:12:38;;;;;;;7.35;4.85;;;;;;;;;;5114012;28;20028;-60
2022/04/02 05:15:08;;;;;;;9.13;5.13;;;;;;;;;;5114073;28;20478;-60
2022/04/02 05:17:34;;;;;;;7.63;5.00;;;;;;;;;;5113800;28;20125;-61
2022/04/02 05:20:00;;;;;;;9.18;4.82;;;;;;;;;;5113683;28;20509;-61
2022/04/02 05:22:26;;;;;;;7.68;5.20;;;;;;;;;;5113716;28;20039;-61
2022/04/02 05:24:53;;;;;;;7.03;4.60;;;;;;;;;;5113719;28;20475;-62
2022/04/02 05:27:19;;;;;;;7.63;5.45;;;;;;;;;;5113798;28;20051;-61
2022/04/02 05:29:45;;;;;;;9.32;5.72;;;;;;;;;;5113574;28;20016;-61
2022/04/02 05:32:12;;;;;;;7.55;5.10;;;;;;;;;;5113794;28;20019;-61
2022/04/02 05:34:38;;;;;;;8.65;5.10;;;;;;;;;;5113531;28;20095;-61
2022/04/02 05:37:04;;;;;;;9.80;5.53;;;;;;;;;;5113269;28;20491;-61
2022/04/02 05:39:30;;;;;;;8.38;5.18;;;;;;;;;;5112718;28;20026;-61
2022/04/02 05:41:57;;;;;;;8.93;5.15;;;;;;;;;;5113345;28;20024;-61
2022/04/02 05:44:26;;;;;;;8.13;5.20;;;;;;;;;;5113415;28;20045;-61
2022/04/02 05:46:52;;;;;;;7.95;5.13;;;;;;;;;;5113385;28;20072;-61
2022/04/02 05:49:18;;;;;;;8.50;4.30;;;;;;;;;;5102815;28;20024;-61
2022/04/02 05:51:44;;;;;;;7.07;4.15;;;;;;;;;;5096554;28;20073;-61
2022/04/02 05:54:10;;;;;;;8.45;4.40;;;;;;;;;;5113027;28;20046;-61
2022/04/02 05:56:37;;;;;;;8.82;4.68;;;;;;;;;;5101247;28;20090;-61
2022/04/02 05:59:07;;;;;;;7.28;4.40;;;;;;;;;;5092468;28;20086;-61
2022/04/02 06:01:33;;;;;;;9.57;4.60;;;;;;;;;;5092497;28;20475;-61
2022/04/02 06:03:59;;;;;;;9.65;4.55;;;;;;;;;;5092237;28;20103;-61
2022/04/02 06:06:25;;;;;;;36.47;5.82;;;;;;;;;;5092170;28;20405;-61
2022/04/02 06:08:51;;;;;;;8.93;4.68;;;;;;;;;;5103751;28;20481;-60
2022/04/02 06:11:17;;;;;;;7.30;4.65;;;;;;;;;;5112448;28;20023;-61
2022/04/02 06:13:43;;;;;;;8.07;4.55;;;;;;;;;;5112526;28;20068;-62
2022/04/02 06:16:09;;;;;;;7.18;4.93;;;;;;;;;;5097833;28;20034;-61
2022/04/02 06:18:36;;;;;;;9.18;4.78;;;;;;;;;;5112214;28;20107;-61
2022/04/02 06:21:03;;;;;;;8.00;4.93;;;;;;;;;;5112145;28;20077;-60
2022/04/02 06:23:29;;;;;;;7.30;4.10;;;;;;;;;;5111996;28;20650;-61
2022/04/02 06:25:55;;;;;;;7.28;4.80;;;;;;;;;;5111572;28;20102;-61
2022/04/02 06:28:22;;;;;;;8.63;4.55;;;;;;;;;;5112201;28;20019;-61
2022/04/02 06:30:48;;;;;;;6.78;4.25;;;;;;;;;;5112089;28;20027;-61
2022/04/02 06:33:14;;;;;;;7.28;4.40;;;;;;;;;;5112280;28;20020;-61
2022/04/02 06:35:40;;;;;;;8.45;4.35;;;;;;;;;;5112223;28;20031;-61
2022/04/02 06:38:07;;;;;;;6.72;4.22;;;;;;;;;;5111830;28;20043;-61
2022/04/02 06:40:33;;;;;;;6.93;4.50;;;;;;;;;;5111946;28;20026;-60
2022/04/02 06:42:59;;;;;;;7.70;4.50;;;;;;;;;;5111635;28;20497;-61
2022/04/02 06:45:25;;;;;;;7.75;4.40;;;;;;;;;;5111552;28;20605;-62
2022/04/02 06:47:52;;;;;;;7.22;4.32;;;;;;;;;;5111766;28;20027;-60
2022/04/02 06:50:18;;;;;;;8.13;4.45;;;;;;;;;;5111039;28;20050;-61
2022/04/02 06:52:45;;;;;;;10.68;4.57;;;;;;;;;;5111875;28;20035;-60
2022/04/02 06:55:12;;;;;;;9.27;4.50;;;;;;;;;;5111887;28;20019;-60
2022/04/02 06:57:45;;;;;;;7.95;4.30;;;;;;;;;;5111793;28;20039;-61
2022/04/02 07:00:12;;;;;;;6.93;4.40;;;;;;;;;;5111843;28;20024;-61
2022/04/02 07:02:38;;;;;;;7.95;4.50;;;;;;;;;;5111715;28;20500;-61
2022/04/02 07:05:05;;;;;;;9.40;4.50;;;;;;;;;;5111712;28;20049;-61
2022/04/02 07:07:31;;;;;;;8.80;4.50;;;;;;;;;;5111774;28;20023;-60
2022/04/02 07:09:57;;;;;;;8.25;4.13;;;;;;;;;;5111014;28;20406;-61
2022/04/02 07:12:23;;;;;;;7.63;4.43;;;;;;;;;;5111443;28;20027;-61
2022/04/02 07:14:50;;;;;;;11.45;5.00;;;;;;;;;;5111721;28;20080;-61
2022/04/02 07:17:16;;;;;;;7.45;4.22;;;;;;;;;;5111606;28;20036;-61
2022/04/02 07:19:42;;;;;;;8.35;4.57;;;;;;;;;;5111681;28;20073;-61
2022/04/02 07:22:09;;;;;;;7.80;4.20;;;;;;;;;;5111754;28;20030;-60
2022/04/02 07:24:39;;;;;;;7.38;3.80;;;;;;;;;;5111497;28;20023;-61
2022/04/02 07:27:05;;;;;;;6.70;4.18;;;;;;;;;;5111698;28;20074;-61
2022/04/02 07:29:32;;;;;;;9.98;4.47;;;;;;;;;;5111506;28;20437;-61
2022/04/02 07:31:58;;;;;;;11.82;4.40;;;;;;;;;;5111853;28;20503;-62
2022/04/02 07:34:24;;;;;;;12.82;4.93;;;;;;;;;;5111524;28;20405;-62
2022/04/02 07:37:10;;;;;;;7.95;4.38;;;;;;;;;;5111074;28;20105;-62
2022/04/02 07:39:55;;;;;;;7.35;3.97;;;;;;;;;;5111466;28;20016;-62
2022/04/02 07:42:23;;;;;;;10.15;4.65;;;;;;;;;;5111500;28;20030;-61
2022/04/02 07:44:52;;;;;;;8.52;4.20;;;;;;;;;;5103935;28;20387;-61
2022/04/02 07:47:20;;;;;;;9.25;4.10;;;;;;;;;;5090912;28;20510;-61
2022/04/02 07:49:47;;;;;;;6.30;3.83;;;;;;;;;;5090160;28;20409;-61
2022/04/02 07:52:14;;;;;;;7.35;4.40;;;;;;;;;;5090795;28;20383;-61
2022/04/02 07:54:42;;;;;;;8.90;4.05;;;;;;;;;;5090794;28;20022;-61
2022/04/02 07:57:09;;;;;;;7.60;4.40;;;;;;;;;;5090723;28;20181;-61
2022/04/02 07:59:39;;;;;;;7.07;3.60;;;;;;;;;;5090807;28;20028;-61
2022/04/02 08:02:36;;;;;;;10.30;4.13;;;;;;;;;;5092393;28;20107;-61
2022/04/02 08:04:59;;;;;;;5.97;3.60;;;;;;;;;;5094593;28;20059;-61
2022/04/02 08:07:26;;;;;;;7.72;4.18;;;;;;;;;;5094618;28;20507;-61
2022/04/02 08:09:53;;;;;;;7.07;4.38;;;;;;;;;;5094571;28;20382;-61
2022/04/02 08:12:19;;;;;;;8.55;4.15;;;;;;;;;;5094607;28;20024;-61
2022/04/02 08:14:46;;;;;;;7.40;4.35;;;;;;;;;;5094419;28;20024;-62
2022/04/02 08:17:13;;;;;;;10.20;4.75;;;;;;;;;;5094541;28;20035;-60
2022/04/02 08:19:40;;;;;;;10.63;4.40;;;;;;;;;;5094045;28;20538;-61
2022/04/02 08:22:06;;;;;;;7.57;4.30;;;;;;;;;;5093966;28;20035;-61
2022/04/02 08:24:32;;;;;;;10.77;5.35;;;;;;;;;;5094212;28;20031;-62
2022/04/02 08:27:03;;;;;;;9.80;4.35;;;;;;;;;;5094154;28;20583;-61
2022/04/02 08:29:44;;;;;;;9.48;4.80;;;;;;;;;;5094108;28;20099;-61
2022/04/02 08:32:29;;;;;;;7.07;4.10;;;;;;;;;;5094114;28;20024;-61
2022/04/02 08:35:01;;;;;;;8.27;4.28;;;;;;;;;;5094088;28;20072;-60
2022/04/02 08:37:30;;;;;;;7.95;4.07;;;;;;;;;;5093694;28;20044;-62
2022/04/02 08:39:59;;;;;;;8.68;4.88;;;;;;;;;;5093893;28;20091;-61
2022/04/02 08:42:37;;;;;;;8.65;4.00;;;;;;;;;;5093939;28;20470;-61
2022/04/02 08:45:07;;;;;;;7.53;4.28;;;;;;;;;;5102994;28;20555;-61
2022/04/02 08:47:33;;;;;;;7.60;4.32;;;;;;;;;;5114282;28;20475;-61
2022/04/02 08:50:07;;;;;;;8.73;5.03;;;;;;;;;;5113871;28;20028;-61
2022/04/02 08:52:48;;;;;;;7.50;4.30;;;;;;;;;;5114337;28;20019;-61
2022/04/02 08:55:15;;;;;;;8.85;4.28;;;;;;;;;;5095991;28;20379;-61
2022/04/02 08:57:50;;;;;;;8.10;4.65;;;;;;;;;;5113970;28;20031;-61
2022/04/02 09:00:23;;;;;;;8.88;4.40;;;;;;;;;;5113842;28;20027;-61
2022/04/02 09:02:49;;;;;;;;;;;;;;;;;;5114348;28;20031;-61
2022/04/02 09:05:23;;;;;;;7.35;4.20;;;;;;;;;;5113612;28;19906;-61
2022/04/02 09:08:12;;;;;;;8.82;4.18;;;;;;;;;;5113581;28;20020;-61
2022/04/02 09:10:47;;;;;;;6.63;3.70;;;;;;;;;;5075082;28;20656;-61
2022/04/02 09:13:26;;;;;;;7.22;4.45;;;;;;;;;;5112697;28;20435;-61
2022/04/02 09:15:55;;;;;;;6.55;3.88;;;;;;;;;;5113608;28;20043;-62
2022/04/02 09:18:24;;;;;;;8.23;4.05;;;;;;;;;;5113416;28;20035;-61
2022/04/02 09:21:09;;;;;;;7.80;4.47;;;;;;;;;;5113299;28;20026;-61
2022/04/02 09:23:48;;;;;;;11.13;4.20;;;;;;;;;;5100106;28;20024;-61
2022/04/02 09:26:32;;;;;;;12.57;5.38;;;;;;;;;;5107631;28;20027;-61
2022/04/02 09:29:13;;;;;;;8.02;5.15;;;;;;;;;;5111447;28;20031;-61
2022/04/02 09:31:39;;;;;;;10.95;5.15;;;;;;;;;;5089025;28;20591;-61
2022/04/02 09:34:24;;;;;;;9.80;5.35;;;;;;;;;;5110235;28;20024;-62
2022/04/02 09:36:59;;;;;;;10.85;6.60;;;;;;;;;;5111823;28;20027;-62
2022/04/02 09:39:43;;;;;;;18.00;8.63;;;;;;;;;;5112265;28;20117;-62
2022/04/02 09:42:09;;;;;;;13.88;6.50;;;;;;;;;;5112606;28;20023;-61
2022/04/02 09:44:49;;;;;;;11.85;6.57;;;;;;;;;;5113322;28;20064;-62
2022/04/02 09:47:19;;;;;;;16.58;7.30;;;;;;;;;;5113262;28;20090;-61
2022/04/02 09:49:57;;;;;;;23.17;9.60;;;;;;;;;;5113190;28;20107;-61
2022/04/02 09:52:24;;;;;;;15.18;9.27;;;;;;;;;;5113166;28;20051;-62
2022/04/02 09:55:09;;;;;;;19.38;7.80;;;;;;;;;;5113231;28;20024;-62
2022/04/02 09:57:35;;;;;;;19.75;8.52;;;;;;;;;;5109731;28;20035;-62
2022/04/02 10:00:05;;;;;;;20.95;9.35;;;;;;;;;;5092251;28;20036;-62
2022/04/02 10:02:59;;;;;;;15.00;7.50;;;;;;;;;;5092550;28;20514;-61
2022/04/02 10:05:32;;;;;;;15.52;6.90;;;;;;;;;;5092162;28;20069;-61
2022/04/02 10:08:04;;;;;;;18.17;7.85;;;;;;;;;;5092382;28;20020;-62
2022/04/02 10:10:30;;;;;;;13.82;6.78;;;;;;;;;;5092489;28;20012;-62
2022/04/02 10:12:57;;;;;;;14.15;7.35;;;;;;;;;;5107111;28;20051;-62
2022/04/02 10:15:24;;;;;;;25.80;7.63;;;;;;;;;;5102386;28;20020;-62
2022/04/02 10:17:52;;;;;;;12.25;6.95;;;;;;;;;;5104287;28;20039;-61
2022/04/02 10:20:23;;;;;;;31.45;8.15;;;;;;;;;;5091824;28;20024;-62
2022/04/02 10:22:54;;;;;;;19.52;6.78;;;;;;;;;;5092008;28;20020;-62
2022/04/02 10:25:24;;;;;;;14.27;6.05;;;;;;;;;;5092085;28;20028;-62
2022/04/02 10:27:50;;;;;;;17.63;6.70;;;;;;;;;;5091823;28;20028;-62
2022/04/02 10:30:18;;;;;;;17.48;7.07;;;;;;;;;;5091370;28;20594;-61
2022/04/02 10:35:46;;;;;;;13.88;5.85;;;;;;;;;;5091854;28;20059;-62
2022/04/02 10:38:31;;;;;;;18.27;6.03;;;;;;;;;;5091289;28;20044;-62
2022/04/02 10:40:57;;;;;;;27.08;6.28;;;;;;;;;;5099037;28;20034;-62
2022/04/02 10:43:25;;;;;;;13.82;6.28;;;;;;;;;;5093086;28;20094;-61
2022/04/02 10:45:51;;;;;;;12.80;5.70;;;;;;;;;;5102927;28;20031;-62
2022/04/02 10:48:20;;;;;;;19.48;5.80;;;;;;;;;;5111229;28;20026;-62
2022/04/02 10:50:46;;;;;;;13.38;5.22;;;;;;;;;;5104717;28;20031;-61
2022/04/02 10:53:13;;;;;;;11.93;6.18;;;;;;;;;;5100816;28;20417;-62
2022/04/02 10:55:43;;;;;;;12.93;5.18;;;;;;;;;;5101169;28;20024;-62
2022/04/02 10:58:11;;;;;;;9.73;4.63;;;;;;;;;;5101863;28;20031;-62
2022/04/02 11:00:39;;;;;;;10.07;5.05;;;;;;;;;;5099422;28;20023;-62
2022/04/02 11:03:05;;;;;;;15.05;5.60;;;;;;;;;;5107704;28;20028;-61
2022/04/02 11:05:38;;;;;;;10.75;5.13;;;;;;;;;;5100913;28;20479;-62
2022/04/02 11:08:12;;;;;;;11.40;4.90;;;;;;;;;;5097733;28;20628;-62
2022/04/02 11:10:38;;;;;;;7.35;4.50;;;;;;;;;;5097998;28;20103;-61
2022/04/02 11:13:06;;;;;;;11.10;4.93;;;;;;;;;;5100124;28;20035;-61
2022/04/02 11:15:39;;;;;;;9.15;4.30;;;;;;;;;;5101300;28;20019;-61
2022/04/02 11:18:05;;;;;;;9.93;5.15;;;;;;;;;;5097483;28;20053;-62
2022/04/02 11:20:32;;;;;;;11.65;5.80;;;;;;;;;;5097541;28;20496;-62
2022/04/02 11:23:20;;;;;;;10.10;4.45;;;;;;;;;;5099041;28;20146;-61
2022/04/02 11:25:49;;;;;;;11.10;4.65;;;;;;;;;;5101052;28;20065;-62
2022/04/02 11:28:19;;;;;;;11.35;4.63;;;;;;;;;;5102657;28;20054;-62
2022/04/02 11:30:45;;;;;;;18.50;5.93;;;;;;;;;;5102884;28;20024;-62
2022/04/02 11:33:21;;;;;;;13.65;5.70;;;;;;;;;;5106538;28;20023;-62
2022/04/02 11:35:48;;;;;;;8.68;4.47;;;;;;;;;;5109408;28;20023;-62
2022/04/02 11:38:14;;;;;;;11.32;4.82;;;;;;;;;;5099309;28;20058;-62
2022/04/02 11:40:47;;;;;;;8.40;4.45;;;;;;;;;;5106355;28;20386;-62
2022/04/02 11:43:13;;;;;;;7.85;4.28;;;;;;;;;;5108186;28;20024;-62
2022/04/02 11:45:41;;;;;;;11.50;4.97;;;;;;;;;;5103272;28;20020;-62
2022/04/02 11:48:11;;;;;;;8.40;4.30;;;;;;;;;;5113137;28;20024;-61
2022/04/02 11:50:43;;;;;;;10.60;4.35;;;;;;;;;;5109355;28;20027;-61
2022/04/02 11:53:09;;;;;;;11.63;4.80;;;;;;;;;;5102009;28;20031;-61
2022/04/02 11:55:36;;;;;;;44.33;13.43;;;;;;;;;;5111422;28;20019;-62
2022/04/02 11:58:04;;;;;;;62.08;18.08;;;;;;;;;;5098064;28;20083;-62
2022/04/02 12:00:31;;;;;;;40.00;12.75;;;;;;;;;;5107355;28;20048;-61
2022/04/02 12:02:59;;;;;;;50.28;14.70;;;;;;;;;;5099817;28;20028;-62
2022/04/02 12:05:39;;;;;;;43.13;12.52;;;;;;;;;;5114515;28;20244;-61
2022/04/02 12:08:05;;;;;;;44.80;12.15;;;;;;;;;;5097740;28;20011;-62
2022/04/02 12:10:32;;;;;;;33.15;11.15;;;;;;;;;;5114314;28;20019;-62
2022/04/02 12:13:00;;;;;;;36.55;10.73;;;;;;;;;;5103068;28;20080;-61
2022/04/02 12:15:26;;;;;;;30.90;9.45;;;;;;;;;;5109429;28;20042;-62
2022/04/02 12:17:53;;;;;;;29.48;10.48;;;;;;;;;;5097488;28;20043;-63
2022/04/02 12:20:27;;;;;;;26.20;9.02;;;;;;;;;;5111439;28;20129;-62
2022/04/02 12:23:06;;;;;;;26.90;8.45;;;;;;;;;;5093896;28;20077;-62
2022/04/02 12:25:32;;;;;;;25.83;7.85;;;;;;;;;;5097159;28;20027;-62
2022/04/02 12:27:59;;;;;;;26.17;8.85;;;;;;;;;;5100868;28;20027;-62
2022/04/02 12:30:25;;;;;;;23.00;8.00;;;;;;;;;;5094159;28;20487;-63
2022/04/02 12:32:51;;;;;;;21.83;7.85;;;;;;;;;;5097753;28;20480;-64
2022/04/02 12:35:25;;;;;;;24.55;7.43;;;;;;;;;;5106036;28;20024;-63
2022/04/02 12:37:52;;;;;;;24.70;7.85;;;;;;;;;;5105823;28;20440;-62
2022/04/02 12:40:25;;;;;;;21.38;7.22;;;;;;;;;;5112124;28;20023;-62
2022/04/02 12:42:56;;;;;;;21.25;8.45;;;;;;;;;;5098908;28;20065;-62
2022/04/02 12:45:22;;;;;;;17.80;6.20;;;;;;;;;;5105107;28;20016;-63
2022/04/02 12:48:03;;;;;;;17.27;6.28;;;;;;;;;;5104464;28;20029;-62
2022/04/02 12:50:37;;;;;;;17.67;6.53;;;;;;;;;;5099793;28;20023;-63
2022/04/02 12:53:03;;;;;;;18.17;6.20;;;;;;;;;;5109525;28;20073;-63
2022/04/02 12:55:30;;;;;;;18.10;5.63;;;;;;;;;;5096635;28;20020;-62
2022/04/02 12:57:57;;;;;;;19.02;6.05;;;;;;;;;;5108892;28;20487;-63
2022/04/02 13:00:29;;;;;;;16.75;5.78;;;;;;;;;;5103311;28;20016;-63
2022/04/02 13:02:56;;;;;;;17.42;5.82;;;;;;;;;;5108215;28;20059;-62
2022/04/02 13:05:24;;;;;;;15.48;5.13;;;;;;;;;;5109835;28;20051;-62
2022/04/02 13:08:04;;;;;;;19.48;5.93;;;;;;;;;;5099588;28;20754;-63
2022/04/02 13:10:31;;;;;;;17.85;5.60;;;;;;;;;;5104003;28;20063;-62
2022/04/02 13:13:02;;;;;;;13.25;5.10;;;;;;;;;;5106148;28;20073;-63
2022/04/02 13:15:29;;;;;;;17.70;5.82;;;;;;;;;;5096312;28;20077;-62
2022/04/02 13:20:43;;;;;;;15.60;5.72;;;;;;;;;;5105642;28;20043;-62
2022/04/02 13:23:24;;;;;;;12.65;5.15;;;;;;;;;;5098273;28;20035;-62
2022/04/02 13:25:54;;;;;;;11.40;3.88;;;;;;;;;;5095187;28;20042;-63
2022/04/02 13:28:40;;;;;;;11.65;4.47;;;;;;;;;;5109443;28;20054;-63
2022/04/02 13:31:06;;;;;;;14.07;4.88;;;;;;;;;;5101862;28;20095;-63
2022/04/02 13:33:32;;;;;;;14.02;5.35;;;;;;;;;;5110201;28;20439;-63
2022/04/02 13:36:01;;;;;;;11.70;4.57;;;;;;;;;;5106675;28;20486;-63
2022/04/02 13:38:46;;;;;;;11.15;4.10;;;;;;;;;;5105067;28;20105;-62
2022/04/02 13:41:13;;;;;;;8.05;3.42;;;;;;;;;;5104909;27;20020;-61
2022/04/02 13:43:45;;;;;;;11.13;4.38;;;;;;;;;;5106107;28;20063;-62
2022/04/02 13:46:13;;;;;;;10.52;4.10;;;;;;;;;;5100029;28;20046;-62
2022/04/02 13:49:04;;;;;;;9.63;4.22;;;;;;;;;;5112669;28;20020;-62
2022/04/02 13:51:48;;;;;;;8.45;3.78;;;;;;;;;;5095488;28;20111;-62
2022/04/02 13:54:17;;;;;;;10.45;4.05;;;;;;;;;;5105605;28;20367;-62
2022/04/02 13:56:54;;;;;;;8.50;3.33;;;;;;;;;;5103241;28;20028;-62
2022/04/02 13:59:22;;;;;;;8.27;4.03;;;;;;;;;;5111846;28;20521;-61
2022/04/02 14:01:55;;;;;;;9.48;3.53;;;;;;;;;;5095236;28;20113;-62
2022/04/02 14:04:32;;;;;;;12.20;4.03;;;;;;;;;;5104154;28;20168;-64
2022/04/02 14:07:00;;;;;;;10.38;4.00;;;;;;;;;;5105395;28;20033;-61
2022/04/02 14:09:29;;;;;;;7.57;3.92;;;;;;;;;;5095308;28;20036;-60
2022/04/02 14:11:59;;;;;;;7.30;3.35;;;;;;;;;;5107786;28;20024;-60
2022/04/02 14:14:31;;;;;;;6.85;3.47;;;;;;;;;;5099760;28;20432;-60
2022/04/02 14:17:09;;;;;;;6.67;3.17;;;;;;;;;;5106155;28;20040;-61
2022/04/02 14:19:42;;;;;;;11.50;3.80;;;;;;;;;;5105708;28;20048;-60
2022/04/02 14:22:09;;;;;;;9.98;4.03;;;;;;;;;;5103424;28;20047;-60
2022/04/02 14:24:53;;;;;;;11.50;3.42;;;;;;;;;;5097020;28;20024;-60
2022/04/02 14:27:38;;;;;;;13.75;3.83;;;;;;;;;;5096549;28;20024;-60
2022/04/02 14:30:08;;;;;;;8.93;3.90;;;;;;;;;;5101010;28;20028;-60
2022/04/02 14:32:53;;;;;;;9.77;3.88;;;;;;;;;;5106996;28;20076;-60
2022/04/02 14:35:28;;;;;;;16.35;3.63;;;;;;;;;;5098555;28;20028;-60
2022/04/02 14:38:04;;;;;;;9.90;3.50;;;;;;;;;;5111444;28;20058;-60
2022/04/02 14:40:49;;;;;;;7.93;3.60;;;;;;;;;;5111064;28;20478;-60
2022/04/02 14:43:33;;;;;;;8.10;3.28;;;;;;;;;;5111759;28;20030;-60
2022/04/02 14:45:59;;;;;;;10.13;3.03;;;;;;;;;;5112090;28;20028;-61
2022/04/02 14:48:25;;;;;;;12.07;3.53;;;;;;;;;;5111888;28;20028;-61
2022/04/02 14:51:03;;;;;;;8.52;3.42;;;;;;;;;;5111803;28;20023;-60
2022/04/02 14:53:35;;;;;;;9.65;3.78;;;;;;;;;;5111926;28;20107;-61
2022/04/02 14:56:20;;;;;;;14.52;3.63;;;;;;;;;;5111811;28;20512;-60
2022/04/02 14:58:49;;;;;;;6.57;2.58;;;;;;;;;;5101910;28;20036;-60